createdAt,value
2023-03-05T00:00:39.656Z,71.65
2023-03-05T00:02:43.235Z,64.03
2023-03-05T00:04:45.828Z,69.38
2023-03-05T00:06:48.418Z,68.35
2023-03-05T00:08:51.747Z,68.55
2023-03-05T00:10:57.964Z,65.75
2023-03-05T00:13:00.545Z,75.88
2023-03-05T00:15:03.073Z,71.55
2023-03-05T00:17:06.999Z,74.75
2023-03-05T00:19:09.945Z,71.80
2023-03-05T00:21:20.809Z,66.28
2023-03-05T00:23:23.399Z,70.28
2023-03-05T00:25:25.926Z,69.18
2023-03-05T00:27:28.480Z,65.93
2023-03-05T00:29:31.826Z,66.10
2023-03-05T00:31:37.007Z,69.22
2023-03-05T00:33:40.932Z,70.72
2023-03-05T00:35:45.277Z,70.47
2023-03-05T00:37:47.837Z,67.82
2023-03-05T00:39:50.401Z,65.45
2023-03-05T00:41:53.157Z,64.97
2023-03-05T00:43:58.588Z,68.55
2023-03-05T00:46:01.120Z,64.85
2023-03-05T00:48:04.361Z,72.88
2023-03-05T00:50:10.108Z,74.95
2023-03-05T00:52:12.695Z,72.28
2023-03-05T00:54:15.390Z,69.63
2023-03-05T00:56:18.278Z,66.43
2023-03-05T00:58:21.251Z,71.72
2023-03-05T01:00:24.053Z,69.75
2023-03-05T01:02:26.986Z,70.45
2023-03-05T01:04:29.553Z,74.30
2023-03-05T01:06:33.525Z,69.00
2023-03-05T01:08:36.779Z,74.68
2023-03-05T01:10:39.453Z,77.60
2023-03-05T01:12:42.026Z,70.85
2023-03-05T01:14:44.597Z,72.93
2023-03-05T01:16:47.568Z,81.68
2023-03-05T01:18:50.114Z,74.03
2023-03-05T01:20:52.689Z,73.53
2023-03-05T01:22:58.887Z,76.15
2023-03-05T01:25:01.722Z,75.47
2023-03-05T01:27:04.277Z,80.55
2023-03-05T01:29:06.841Z,74.20
2023-03-05T01:31:10.485Z,78.18
2023-03-05T01:33:13.050Z,71.53
2023-03-05T01:35:19.232Z,68.72
2023-03-05T01:37:21.829Z,74.13
2023-03-05T01:39:25.707Z,82.18
2023-03-05T01:41:28.315Z,68.97
2023-03-05T01:43:31.872Z,74.15
2023-03-05T01:45:34.543Z,73.50
2023-03-05T01:47:37.459Z,68.20
2023-03-05T01:49:42.168Z,68.25
2023-03-05T01:51:52.566Z,70.82
2023-03-05T01:53:57.958Z,83.82
2023-03-05T01:56:03.149Z,73.38
2023-03-05T01:58:09.152Z,72.43
2023-03-05T02:00:15.749Z,73.40
2023-03-05T02:02:19.573Z,82.00
2023-03-05T02:04:24.758Z,75.03
2023-03-05T02:06:27.447Z,71.03
2023-03-05T02:08:30.046Z,69.68
2023-03-05T02:10:35.364Z,67.78
2023-03-05T02:12:39.251Z,70.15
2023-03-05T02:14:43.344Z,71.63
2023-03-05T02:16:45.915Z,68.63
2023-03-05T02:18:48.585Z,71.53
2023-03-05T02:20:54.318Z,71.22
2023-03-05T02:22:58.615Z,75.88
2023-03-05T02:25:01.196Z,82.65
2023-03-05T02:27:05.900Z,75.05
2023-03-05T02:29:11.480Z,73.45
2023-03-05T02:31:17.263Z,70.80
2023-03-05T02:33:21.664Z,71.95
2023-03-05T02:35:24.303Z,69.78
2023-03-05T02:37:26.995Z,79.25
2023-03-05T02:39:31.010Z,73.00
2023-03-05T02:41:33.837Z,70.15
2023-03-05T02:43:36.430Z,67.90
2023-03-05T02:45:39.853Z,74.00
2023-03-05T02:47:42.694Z,69.68
2023-03-05T02:49:45.337Z,70.97
2023-03-05T02:51:47.919Z,72.68
2023-03-05T02:53:50.476Z,69.15
2023-03-05T02:55:54.391Z,75.93
2023-03-05T02:57:56.977Z,72.75
2023-03-05T02:59:59.705Z,76.65
2023-03-05T03:02:02.784Z,80.63
2023-03-05T03:04:05.504Z,72.20
2023-03-05T03:06:08.775Z,70.03
2023-03-05T03:08:11.424Z,67.90
2023-03-05T03:10:14.070Z,71.05
2023-03-05T03:12:18.026Z,70.53
2023-03-05T03:14:23.345Z,74.63
2023-03-05T03:16:26.011Z,73.32
2023-03-05T03:18:28.622Z,67.13
2023-03-05T03:20:31.377Z,71.78
2023-03-05T03:22:34.436Z,73.55
2023-03-05T03:24:38.441Z,69.00
2023-03-05T03:26:40.979Z,79.80
2023-03-05T03:28:44.863Z,74.00
2023-03-05T03:30:47.864Z,68.20
2023-03-05T03:32:52.447Z,73.22
2023-03-05T03:34:55.054Z,72.10
2023-03-05T03:36:57.637Z,64.18
2023-03-05T03:39:00.191Z,63.58
2023-03-05T03:41:02.792Z,69.75
2023-03-05T03:43:05.349Z,67.15
2023-03-05T03:45:10.385Z,84.43
2023-03-05T03:47:12.926Z,92.53
2023-03-05T03:49:19.094Z,99.30
2023-03-05T03:51:21.697Z,101.75
2023-03-05T03:53:24.304Z,105.72
2023-03-05T03:55:26.828Z,106.15
2023-03-05T03:57:30.327Z,95.03
2023-03-05T03:59:32.951Z,95.95
2023-03-05T04:01:36.903Z,82.70
2023-03-05T04:03:39.468Z,87.15
2023-03-05T04:05:42.393Z,83.10
2023-03-05T04:07:45.285Z,77.05
2023-03-05T04:09:47.839Z,79.55
2023-03-05T04:11:50.384Z,79.65
2023-03-05T04:13:53.100Z,79.30
2023-03-05T04:15:55.863Z,73.70
2023-03-05T04:17:59.919Z,70.15
2023-03-05T04:20:05.259Z,74.43
2023-03-05T04:22:08.233Z,73.45
2023-03-05T04:24:11.015Z,69.80
2023-03-05T04:26:13.592Z,72.25
2023-03-05T04:28:17.612Z,66.65
2023-03-05T04:30:20.400Z,72.47
2023-03-05T04:32:23.263Z,65.07
2023-03-05T04:34:27.257Z,72.57
2023-03-05T04:36:29.808Z,71.90
2023-03-05T04:38:32.470Z,60.22
2023-03-05T04:40:35.708Z,73.28
2023-03-05T04:42:38.285Z,68.25
2023-03-05T04:44:40.832Z,59.63
2023-03-05T04:46:43.430Z,82.45
2023-03-05T04:48:46.050Z,62.30
2023-03-05T04:50:49.981Z,77.38
2023-03-05T04:52:52.723Z,68.63
2023-03-05T04:54:55.349Z,66.35
2023-03-05T04:57:00.774Z,68.35
2023-03-05T04:59:03.503Z,65.35
2023-03-05T05:01:07.371Z,66.97
2023-03-05T05:03:09.960Z,66.72
2023-03-05T05:05:15.044Z,65.97
2023-03-05T05:07:18.964Z,70.65
2023-03-05T05:09:21.504Z,69.78
2023-03-05T05:11:24.141Z,64.78
2023-03-05T05:13:27.044Z,68.65
2023-03-05T05:15:29.723Z,74.07
2023-03-05T05:17:33.064Z,70.13
2023-03-05T05:19:36.459Z,61.08
2023-03-05T05:21:39.150Z,70.10
2023-03-05T05:23:43.036Z,64.10
2023-03-05T05:25:46.329Z,70.55
2023-03-05T05:27:48.921Z,67.95
2023-03-05T05:29:52.811Z,75.53
2023-03-05T05:31:56.383Z,69.50
2023-03-05T05:33:58.987Z,65.38
2023-03-05T05:36:03.448Z,72.75
2023-03-05T05:38:06.019Z,68.53
2023-03-05T05:40:11.470Z,68.60
2023-03-05T05:42:13.980Z,68.93
2023-03-05T05:44:16.524Z,70.30
2023-03-05T05:46:21.133Z,70.57
2023-03-05T05:48:24.557Z,69.18
2023-03-05T05:50:27.673Z,66.80
2023-03-05T05:52:30.224Z,68.93
2023-03-05T05:54:32.862Z,71.93
2023-03-05T05:56:37.164Z,77.18
2023-03-05T05:58:41.342Z,70.18
2023-03-05T06:00:44.164Z,69.15
2023-03-05T06:02:46.849Z,70.43
2023-03-05T06:04:49.511Z,71.57
2023-03-05T06:06:52.062Z,68.50
2023-03-05T06:08:55.633Z,71.65
2023-03-05T06:10:58.171Z,71.82
2023-03-05T06:13:02.309Z,67.63
2023-03-05T06:15:05.783Z,69.07
2023-03-05T06:17:08.978Z,71.75
2023-03-05T06:19:13.185Z,61.38
2023-03-05T06:21:17.280Z,64.70
2023-03-05T06:23:19.829Z,69.40
2023-03-05T06:25:22.368Z,75.47
2023-03-05T06:27:24.976Z,66.60
2023-03-05T06:29:28.861Z,63.47
2023-03-05T06:31:31.638Z,66.43
2023-03-05T06:33:36.688Z,65.13
2023-03-05T06:35:40.174Z,66.03
2023-03-05T06:37:45.741Z,68.72
2023-03-05T06:39:48.409Z,76.25
2023-03-05T06:41:52.007Z,69.93
2023-03-05T06:43:55.451Z,76.00
2023-03-05T06:46:06.630Z,65.30
2023-03-05T06:48:09.160Z,65.30
2023-03-05T06:50:13.126Z,65.43
2023-03-05T06:52:15.713Z,69.47
2023-03-05T06:54:18.629Z,62.92
2023-03-05T06:56:21.670Z,62.63
2023-03-05T06:58:24.467Z,61.83
2023-03-05T07:00:29.594Z,63.85
2023-03-05T07:02:33.685Z,64.45
2023-03-05T07:04:36.266Z,64.07
2023-03-05T07:06:39.627Z,56.42
2023-03-05T07:08:42.234Z,54.78
2023-03-05T07:10:45.130Z,62.78
2023-03-05T07:12:47.687Z,62.72
2023-03-05T07:14:50.296Z,62.22
2023-03-05T07:16:52.912Z,63.90
2023-03-05T07:18:58.878Z,60.88
2023-03-05T07:21:03.620Z,58.15
2023-03-05T07:23:06.224Z,54.65
2023-03-05T07:25:09.507Z,58.72
2023-03-05T07:27:12.057Z,53.65
2023-03-05T07:29:14.699Z,64.68
2023-03-05T07:31:19.915Z,56.95
2023-03-05T07:33:22.460Z,61.55
2023-03-05T07:35:26.639Z,57.17
2023-03-05T07:37:29.272Z,54.90
2023-03-05T07:39:31.857Z,53.60
2023-03-05T07:41:34.645Z,52.67
2023-03-05T07:43:37.352Z,56.63
2023-03-05T07:45:41.037Z,54.13
2023-03-05T07:47:43.581Z,49.88
2023-03-05T07:49:46.189Z,53.85
2023-03-05T07:51:50.372Z,50.83
2023-03-05T07:53:54.245Z,53.65
2023-03-05T07:55:56.815Z,50.55
2023-03-05T07:57:59.365Z,51.88
2023-03-05T08:00:01.976Z,53.00
2023-03-05T08:02:04.687Z,52.22
2023-03-05T08:04:08.931Z,55.83
2023-03-05T08:06:13.071Z,49.67
2023-03-05T08:08:17.593Z,53.50
2023-03-05T08:10:20.306Z,46.42
2023-03-05T08:12:23.105Z,49.83
2023-03-05T08:14:25.654Z,56.53
2023-03-05T08:16:28.479Z,54.20
2023-03-05T08:18:31.028Z,51.83
2023-03-05T08:20:36.199Z,45.63
2023-03-05T08:22:39.499Z,58.30
2023-03-05T08:24:44.290Z,47.83
2023-03-05T08:26:46.845Z,49.78
2023-03-05T08:28:50.293Z,52.53
2023-03-05T08:30:52.956Z,52.13
2023-03-05T08:32:57.316Z,46.35
2023-03-05T08:34:59.932Z,48.53
2023-03-05T08:37:02.477Z,47.50
2023-03-05T08:39:06.762Z,48.83
2023-03-05T08:41:10.694Z,57.70
2023-03-05T08:43:13.534Z,55.63
2023-03-05T08:45:16.285Z,55.97
2023-03-05T08:47:20.340Z,51.03
2023-03-05T08:49:23.106Z,52.20
2023-03-05T08:51:26.973Z,48.75
2023-03-05T08:53:29.536Z,49.05
2023-03-05T08:55:32.247Z,46.95
2023-03-05T08:57:36.132Z,49.17
2023-03-05T08:59:41.120Z,44.00
2023-03-05T09:01:43.742Z,48.78
2023-03-05T09:03:46.460Z,48.65
2023-03-05T09:05:49.500Z,43.85
2023-03-05T09:07:52.086Z,52.20
2023-03-05T09:09:54.716Z,52.08
2023-03-05T09:11:59.001Z,48.50
2023-03-05T09:14:03.041Z,44.10
2023-03-05T09:16:07.844Z,48.33
2023-03-05T09:18:10.510Z,47.22
2023-03-05T09:20:15.361Z,50.05
2023-03-05T09:22:18.013Z,48.75
2023-03-05T09:24:20.561Z,44.92
2023-03-05T09:26:23.117Z,44.92
2023-03-05T09:28:25.704Z,42.97
2023-03-05T09:30:29.616Z,40.38
2023-03-05T09:32:32.614Z,44.35
2023-03-05T09:34:35.586Z,45.00
2023-03-05T09:36:38.267Z,53.65
2023-03-05T09:38:40.818Z,49.75
2023-03-05T09:40:53.036Z,40.05
2023-03-05T09:43:05.381Z,40.67
2023-03-05T09:45:18.939Z,47.88
2023-03-05T09:47:35.126Z,46.38
2023-03-05T09:49:50.649Z,42.35
2023-03-05T09:52:01.394Z,44.72
2023-03-05T09:54:11.419Z,40.83
2023-03-05T09:56:17.630Z,39.08
2023-03-05T09:58:27.138Z,42.70
2023-03-05T10:00:37.262Z,39.30
2023-03-05T10:02:50.777Z,46.65
2023-03-05T10:04:58.766Z,40.95
2023-03-05T10:07:08.708Z,41.20
2023-03-05T10:09:16.758Z,44.28
2023-03-05T10:11:38.931Z,45.65
2023-03-05T10:13:46.330Z,37.35
2023-03-05T10:15:58.926Z,35.90
2023-03-05T10:18:15.214Z,46.15
2023-03-05T10:20:35.922Z,41.00
2023-03-05T10:22:52.708Z,38.72
2023-03-05T10:25:08.118Z,40.72
2023-03-05T10:27:20.160Z,34.15
2023-03-05T10:30:02.878Z,43.65
2023-03-05T10:32:19.092Z,37.88
2023-03-05T10:34:49.331Z,41.13
2023-03-05T10:37:07.321Z,40.63
2023-03-05T10:39:43.307Z,38.15
2023-03-05T10:42:02.313Z,40.75
2023-03-05T10:44:15.171Z,37.67
2023-03-05T10:46:21.856Z,44.00
2023-03-05T10:48:34.761Z,40.22
2023-03-05T10:50:43.872Z,40.40
2023-03-05T10:52:51.681Z,39.92
2023-03-05T10:54:54.240Z,32.50
2023-03-05T10:57:14.295Z,47.40
2023-03-05T10:59:16.880Z,30.63
2023-03-05T11:01:25.846Z,33.50
2023-03-05T11:03:47.931Z,32.70
2023-03-05T11:08:02.288Z,40.17
2023-03-05T11:10:16.986Z,35.83
2023-03-05T11:12:21.852Z,30.83
2023-03-05T11:14:31.084Z,31.58
2023-03-05T11:16:35.854Z,30.77
2023-03-05T11:18:38.440Z,32.45
2023-03-05T11:20:41.607Z,31.92
2023-03-05T11:23:06.550Z,28.55
2023-03-05T11:25:19.031Z,30.83
2023-03-05T11:27:32.276Z,35.47
2023-03-05T11:29:35.983Z,39.08
2023-03-05T11:31:38.520Z,32.72
2023-03-05T11:33:41.100Z,38.15
2023-03-05T11:35:45.058Z,40.45
2023-03-05T11:38:01.456Z,35.72
2023-03-05T11:40:21.518Z,34.03
2023-03-05T11:42:25.413Z,39.17
2023-03-05T11:44:31.054Z,37.95
2023-03-05T11:46:41.264Z,31.33
2023-03-05T11:48:46.096Z,38.28
2023-03-05T11:50:52.689Z,35.55
2023-03-05T11:52:59.243Z,37.03
2023-03-05T11:55:06.929Z,35.70
2023-03-05T11:57:15.276Z,34.88
2023-03-05T11:59:21.280Z,39.08
2023-03-05T12:01:26.766Z,33.08
2023-03-05T12:03:33.295Z,35.95
2023-03-05T12:05:41.012Z,43.50
2023-03-05T12:07:48.200Z,31.83
2023-03-05T12:09:54.056Z,35.65
2023-03-05T12:12:03.276Z,33.03
2023-03-05T12:14:16.420Z,36.25
2023-03-05T12:16:29.345Z,31.80
2023-03-05T12:18:43.232Z,34.53
2023-03-05T12:20:57.032Z,33.88
2023-03-05T12:22:59.946Z,35.03
2023-03-05T12:25:24.744Z,29.63
2023-03-05T12:27:35.230Z,31.75
2023-03-05T12:29:43.775Z,35.00
2023-03-05T12:31:49.323Z,31.30
2023-03-05T12:33:51.891Z,31.05
2023-03-05T12:35:54.487Z,33.22
2023-03-05T12:38:28.529Z,34.30
2023-03-05T12:40:33.404Z,36.33
2023-03-05T12:42:48.307Z,33.50
2023-03-05T12:45:24.400Z,30.20
2023-03-05T12:47:26.985Z,32.60
2023-03-05T12:49:30.066Z,32.42
2023-03-05T12:51:39.508Z,33.80
2023-03-05T12:53:42.340Z,33.70
2023-03-05T12:55:56.717Z,29.95
2023-03-05T12:58:03.979Z,34.38
2023-03-05T13:00:11.705Z,34.65
2023-03-05T13:02:22.730Z,35.28
2023-03-05T13:04:29.232Z,38.07
2023-03-05T13:06:34.514Z,35.00
2023-03-05T13:08:38.216Z,36.88
2023-03-05T13:10:41.114Z,34.30
2023-03-05T13:12:52.894Z,35.40
2023-03-05T13:17:03.884Z,30.77
2023-03-05T13:19:17.322Z,36.33
2023-03-05T13:21:21.224Z,33.17
2023-03-05T13:23:26.434Z,35.13
2023-03-05T13:25:29.529Z,42.38
2023-03-05T13:27:33.932Z,32.60
2023-03-05T13:29:52.272Z,36.45
2023-03-05T13:31:57.058Z,40.60
2023-03-05T13:34:09.852Z,40.22
2023-03-05T13:36:17.054Z,42.80
2023-03-05T13:38:27.360Z,41.90
2023-03-05T13:40:32.060Z,40.08
2023-03-05T13:42:38.352Z,42.05
2023-03-05T13:44:44.877Z,43.03
2023-03-05T13:46:48.039Z,40.10
2023-03-05T13:48:50.660Z,39.40
2023-03-05T13:50:56.481Z,41.28
2023-03-05T13:53:15.794Z,44.35
2023-03-05T13:55:19.306Z,39.67
2023-03-05T13:57:37.335Z,37.28
2023-03-05T13:59:39.951Z,44.33
2023-03-05T14:01:46.438Z,40.33
2023-03-05T14:03:51.357Z,39.13
2023-03-05T14:05:55.128Z,44.85
2023-03-05T14:07:57.917Z,41.70
2023-03-05T14:10:03.026Z,43.90
2023-03-05T14:12:07.306Z,43.22
2023-03-05T14:14:17.805Z,41.90
2023-03-05T14:16:27.907Z,43.38
2023-03-05T14:18:31.908Z,46.15
2023-03-05T14:20:34.550Z,41.33
2023-03-05T14:22:39.017Z,45.90
2023-03-05T14:24:53.376Z,42.10
2023-03-05T14:26:58.009Z,45.15
2023-03-05T14:29:02.348Z,45.03
2023-03-05T14:31:05.029Z,41.30
2023-03-05T14:33:07.737Z,41.35
2023-03-05T14:35:21.911Z,44.10
2023-03-05T14:37:27.554Z,44.72
2023-03-05T14:39:33.426Z,40.65
2023-03-05T14:41:39.620Z,45.80
2023-03-05T14:43:42.150Z,38.72
2023-03-05T14:45:47.759Z,40.95
2023-03-05T14:47:51.436Z,43.38
2023-03-05T14:49:54.009Z,41.53
2023-03-05T14:51:58.401Z,36.60
2023-03-05T14:54:01.490Z,39.83
2023-03-05T14:56:04.032Z,38.38
2023-03-05T14:58:14.089Z,38.83
2023-03-05T15:00:17.730Z,36.95
2023-03-05T15:02:22.216Z,40.35
2023-03-05T15:04:24.793Z,42.00
2023-03-05T15:06:33.054Z,48.72
2023-03-05T15:08:36.990Z,44.30
2023-03-05T15:10:39.553Z,42.22
2023-03-05T15:12:42.404Z,42.80
2023-03-05T15:14:45.266Z,46.22
2023-03-05T15:16:49.114Z,46.15
2023-03-05T15:18:51.861Z,42.50
2023-03-05T15:20:54.800Z,41.85
2023-03-05T15:22:57.409Z,44.67
2023-03-05T15:25:03.125Z,41.35
2023-03-05T15:27:06.612Z,42.38
2023-03-05T15:29:09.265Z,45.65
2023-03-05T15:31:12.230Z,44.25
2023-03-05T15:33:16.821Z,42.88
2023-03-05T15:35:19.425Z,45.03
2023-03-05T15:37:21.992Z,46.15
2023-03-05T15:39:26.276Z,40.58
2023-03-05T15:41:30.157Z,41.10
2023-03-05T15:43:32.713Z,37.70
2023-03-05T15:45:35.277Z,40.67
2023-03-05T15:47:37.963Z,45.20
2023-03-05T15:49:41.070Z,43.15
2023-03-05T15:51:43.756Z,42.05
2023-03-05T15:53:46.479Z,43.72
2023-03-05T15:55:49.015Z,39.15
2023-03-05T15:57:54.041Z,39.20
2023-03-05T15:59:56.894Z,42.40
2023-03-05T16:01:59.494Z,41.25
2023-03-05T16:04:02.538Z,39.00
2023-03-05T16:06:06.252Z,44.17
2023-03-05T16:08:09.338Z,43.40
2023-03-05T16:10:12.871Z,47.40
2023-03-05T16:12:19.774Z,42.58
2023-03-05T16:14:27.049Z,41.00
2023-03-05T16:16:30.010Z,38.20
2023-03-05T16:18:33.669Z,42.30
2023-03-05T16:20:36.530Z,45.70
2023-03-05T16:22:39.265Z,41.30
2023-03-05T16:24:41.826Z,38.88
2023-03-05T16:26:44.504Z,42.20
2023-03-05T16:28:47.075Z,47.33
2023-03-05T16:30:55.408Z,43.20
2023-03-05T16:32:57.965Z,42.38
2023-03-05T16:35:00.541Z,43.33
2023-03-05T16:37:05.063Z,41.75
2023-03-05T16:39:07.741Z,43.40
2023-03-05T16:41:10.315Z,43.90
2023-03-05T16:43:12.845Z,43.22
2023-03-05T16:45:15.435Z,44.28
2023-03-05T16:47:19.367Z,45.15
2023-03-05T16:49:22.874Z,43.22
2023-03-05T16:51:26.018Z,48.58
2023-03-05T16:53:28.595Z,48.65
2023-03-05T16:55:31.152Z,51.63
2023-03-05T16:57:33.692Z,54.20
2023-03-05T16:59:36.326Z,52.08
2023-03-05T17:01:38.930Z,45.92
2023-03-05T17:03:44.037Z,42.83
2023-03-05T17:05:46.591Z,48.17
2023-03-05T17:07:53.039Z,49.72
2023-03-05T17:09:56.184Z,46.83
2023-03-05T17:11:58.710Z,45.47
2023-03-05T17:14:01.260Z,47.10
2023-03-05T17:16:04.647Z,46.45
2023-03-05T17:18:08.004Z,48.13
2023-03-05T17:20:13.783Z,51.28
2023-03-05T17:22:17.038Z,48.40
2023-03-05T17:24:22.325Z,50.47
2023-03-05T17:26:25.286Z,51.42
2023-03-05T17:28:27.831Z,52.28
2023-03-05T17:30:31.330Z,46.28
2023-03-05T17:32:33.881Z,49.47
2023-03-05T17:34:37.115Z,52.28
2023-03-05T17:36:41.031Z,53.20
2023-03-05T17:38:44.074Z,56.88
2023-03-05T17:40:46.632Z,50.75
2023-03-05T17:42:49.160Z,54.03
2023-03-05T17:44:54.149Z,54.80
2023-03-05T17:46:56.723Z,54.60
2023-03-05T17:48:59.246Z,55.60
2023-03-05T17:51:02.328Z,49.28
2023-03-05T17:53:06.292Z,46.10
2023-03-05T17:55:12.087Z,43.58
2023-03-05T17:57:14.645Z,41.53
2023-03-05T17:59:17.185Z,46.35
2023-03-05T18:01:24.500Z,52.38
2023-03-05T18:03:27.355Z,40.30
2023-03-05T18:05:30.381Z,49.95
2023-03-05T18:07:33.173Z,44.70
2023-03-05T18:09:37.246Z,42.38
2023-03-05T18:11:39.984Z,39.67
2023-03-05T18:13:42.956Z,41.97
2023-03-05T18:15:47.574Z,44.78
2023-03-05T18:17:50.643Z,41.28
2023-03-05T18:19:53.632Z,43.08
2023-03-05T18:21:56.170Z,43.42
2023-03-05T18:23:58.713Z,38.63
2023-03-05T18:26:04.127Z,34.90
2023-03-05T18:28:08.341Z,34.95
2023-03-05T18:30:12.342Z,38.50
2023-03-05T18:32:14.987Z,39.65
2023-03-05T18:34:17.757Z,40.38
2023-03-05T18:36:20.340Z,39.80
2023-03-05T18:38:24.822Z,44.13
2023-03-05T18:40:30.982Z,39.97
2023-03-05T18:42:37.561Z,38.33
2023-03-05T18:44:40.249Z,41.97
2023-03-05T18:46:42.839Z,39.22
2023-03-05T18:48:45.366Z,43.70
2023-03-05T18:50:50.728Z,43.22
2023-03-05T18:52:53.726Z,39.28
2023-03-05T18:54:56.263Z,43.25
2023-03-05T18:56:58.822Z,43.05
2023-03-05T18:59:02.933Z,38.90
2023-03-05T19:01:05.752Z,46.15
2023-03-05T19:03:08.985Z,37.53
2023-03-05T19:05:11.885Z,46.72
2023-03-05T19:07:14.517Z,41.85
2023-03-05T19:09:29.987Z,41.90
2023-03-05T19:11:32.537Z,42.33
2023-03-05T19:13:39.698Z,38.45
2023-03-05T19:15:44.104Z,41.00
2023-03-05T19:17:49.629Z,37.88
2023-03-05T19:19:53.005Z,39.83
2023-03-05T19:21:59.503Z,39.75
2023-03-05T19:24:02.045Z,37.22
2023-03-05T19:26:04.988Z,30.27
2023-03-05T19:28:07.545Z,36.70
2023-03-05T19:30:12.067Z,40.35
2023-03-05T19:32:18.402Z,39.67
2023-03-05T19:34:24.207Z,44.55
2023-03-05T19:36:26.872Z,41.15
2023-03-05T19:38:29.413Z,38.33
2023-03-05T19:40:33.197Z,41.80
2023-03-05T19:42:37.983Z,40.67
2023-03-05T19:44:40.602Z,38.20
2023-03-05T19:46:43.592Z,36.53
2023-03-05T19:48:47.488Z,36.42
2023-03-05T19:50:50.016Z,35.05
2023-03-05T19:52:52.541Z,35.03
2023-03-05T19:54:55.106Z,36.80
2023-03-05T19:56:58.873Z,39.05
2023-03-05T19:59:01.401Z,35.08
2023-03-05T20:01:11.892Z,33.33
2023-03-05T20:03:14.448Z,32.70
2023-03-05T20:05:18.350Z,42.85
2023-03-05T20:07:20.915Z,44.10
2023-03-05T20:09:23.445Z,43.78
2023-03-05T20:11:27.212Z,37.67
2023-03-05T20:13:30.929Z,42.00
2023-03-05T20:15:33.533Z,39.17
2023-03-05T20:17:36.056Z,43.78
2023-03-05T20:19:38.560Z,34.20
2023-03-05T20:21:42.713Z,38.55
2023-03-05T20:23:45.229Z,33.95
2023-03-05T20:25:48.004Z,39.72
2023-03-05T20:27:50.558Z,36.80
2023-03-05T20:29:53.072Z,39.40
2023-03-05T20:31:56.837Z,39.35
2023-03-05T20:33:59.389Z,41.45
2023-03-05T20:36:01.953Z,44.42
2023-03-05T20:38:20.762Z,43.30
2023-03-05T20:40:23.435Z,39.63
2023-03-05T20:42:26.008Z,42.60
2023-03-05T20:44:28.515Z,47.17
2023-03-05T20:46:33.006Z,50.25
2023-03-05T20:48:35.603Z,42.97
2023-03-05T20:50:38.498Z,43.60
2023-03-05T20:52:41.759Z,41.13
2023-03-05T20:54:47.631Z,46.38
2023-03-05T20:56:50.259Z,46.13
2023-03-05T20:58:52.796Z,45.45
2023-03-05T21:00:55.653Z,40.35
2023-03-05T21:02:58.265Z,41.25
2023-03-05T21:05:00.889Z,44.25
2023-03-05T21:07:04.070Z,45.83
2023-03-05T21:09:06.661Z,41.75
2023-03-05T21:11:11.143Z,40.20
2023-03-05T21:13:13.730Z,38.05
2023-03-05T21:15:19.274Z,39.03
2023-03-05T21:17:21.881Z,40.50
2023-03-05T21:19:24.397Z,44.38
2023-03-05T21:21:27.034Z,38.67
2023-03-05T21:23:29.687Z,38.05
2023-03-05T21:25:33.383Z,38.72
2023-03-05T21:27:37.854Z,37.58
2023-03-05T21:29:40.418Z,44.03
2023-03-05T21:31:43.004Z,36.58
2023-03-05T21:33:45.844Z,35.92
2023-03-05T21:35:49.027Z,40.67
2023-03-05T21:37:52.603Z,43.42
2023-03-05T21:39:55.214Z,40.28
2023-03-05T21:41:57.773Z,41.15
2023-03-05T21:44:03.988Z,42.25
2023-03-05T21:46:06.751Z,44.38
2023-03-05T21:48:09.997Z,54.58
2023-03-05T21:50:14.057Z,42.67
2023-03-05T21:52:16.964Z,46.63
2023-03-05T21:54:19.595Z,41.15
2023-03-05T21:56:24.367Z,45.50
2023-03-05T21:58:26.933Z,43.88
2023-03-05T22:00:30.839Z,46.30
2023-03-05T22:02:33.462Z,48.20
2023-03-05T22:04:36.020Z,45.08
2023-03-05T22:06:38.566Z,59.28
2023-03-05T22:08:43.501Z,57.83
2023-03-05T22:10:46.220Z,52.53
2023-03-05T22:12:56.551Z,47.97
2023-03-05T22:14:59.095Z,45.75
2023-03-05T22:17:03.305Z,46.15
2023-03-05T22:19:07.102Z,72.57
2023-03-05T22:21:17.975Z,51.85
2023-03-05T22:23:22.254Z,49.00
2023-03-05T22:25:24.791Z,53.53
2023-03-05T22:27:28.056Z,51.65
2023-03-05T22:29:30.584Z,51.08
2023-03-05T22:31:33.154Z,54.30
2023-03-05T22:33:37.102Z,54.13
2023-03-05T22:35:40.687Z,54.50
2023-03-05T22:37:43.807Z,57.25
2023-03-05T22:39:46.355Z,56.00
2023-03-05T22:41:48.891Z,62.50
2023-03-05T22:43:51.896Z,54.33
2023-03-05T22:45:54.462Z,54.35
2023-03-05T22:47:57.080Z,48.65
2023-03-05T22:50:00.987Z,49.38
2023-03-05T22:52:03.529Z,49.72
2023-03-05T22:54:06.370Z,57.38
2023-03-05T22:56:10.449Z,51.22
2023-03-05T22:58:13.019Z,51.90
2023-03-05T23:00:18.719Z,54.35
2023-03-05T23:02:21.480Z,51.92
2023-03-05T23:04:40.083Z,47.75
2023-03-05T23:06:43.947Z,51.35
2023-03-05T23:08:46.493Z,46.33
2023-03-05T23:10:49.031Z,53.88
2023-03-05T23:12:53.362Z,50.03
2023-03-05T23:14:56.094Z,50.65
2023-03-05T23:16:58.667Z,56.85
2023-03-05T23:19:01.265Z,55.65
2023-03-05T23:21:03.917Z,53.70
2023-03-05T23:23:07.875Z,56.20
2023-03-05T23:25:11.377Z,53.10
2023-03-05T23:27:16.409Z,58.75
2023-03-05T23:29:18.940Z,61.75
2023-03-05T23:31:21.659Z,55.10
2023-03-05T23:33:25.034Z,58.22
2023-03-05T23:35:29.238Z,55.55
2023-03-05T23:37:31.897Z,55.88
2023-03-05T23:39:35.879Z,57.45
2023-03-05T23:41:38.414Z,52.90
2023-03-05T23:43:40.965Z,54.38
2023-03-05T23:45:43.784Z,59.28
2023-03-05T23:47:48.207Z,52.35
2023-03-05T23:49:50.769Z,49.47
2023-03-05T23:51:53.322Z,49.90
2023-03-05T23:53:55.870Z,51.03
2023-03-05T23:55:59.754Z,49.40
2023-03-05T23:58:02.813Z,53.15
